sensor_id;sensor_type;location;lat;lon;timestamp;temperature;humidity
41922;DHT22;27609;51.002;5.354;2023-04-24T00:00:06;9.90;99.90
41922;DHT22;27609;51.002;5.354;2023-04-24T00:02:32;9.80;99.90
41922;DHT22;27609;51.002;5.354;2023-04-24T00:04:59;9.80;99.90
41922;DHT22;27609;51.002;5.354;2023-04-24T00:07:27;9.80;99.90
41922;DHT22;27609;51.002;5.354;2023-04-24T00:09:53;9.80;99.90
41922;DHT22;27609;51.002;5.354;2023-04-24T00:12:18;9.80;99.90
41922;DHT22;27609;51.002;5.354;2023-04-24T00:14:44;9.80;99.90
41922;DHT22;27609;51.002;5.354;2023-04-24T00:17:10;9.70;99.90
41922;DHT22;27609;51.002;5.354;2023-04-24T00:19:36;9.80;99.90
41922;DHT22;27609;51.002;5.354;2023-04-24T00:22:02;9.80;99.90
41922;DHT22;27609;51.002;5.354;2023-04-24T00:24:28;9.70;99.90
41922;DHT22;27609;51.002;5.354;2023-04-24T00:26:53;9.80;99.90
41922;DHT22;27609;51.002;5.354;2023-04-24T00:29:20;9.70;99.90
41922;DHT22;27609;51.002;5.354;2023-04-24T00:31:46;9.60;99.90
41922;DHT22;27609;51.002;5.354;2023-04-24T00:34:12;9.60;99.90
41922;DHT22;27609;51.002;5.354;2023-04-24T00:36:38;9.60;99.90
41922;DHT22;27609;51.002;5.354;2023-04-24T00:39:03;9.70;99.90
41922;DHT22;27609;51.002;5.354;2023-04-24T00:41:29;9.70;99.90
41922;DHT22;27609;51.002;5.354;2023-04-24T00:43:55;9.70;99.90
41922;DHT22;27609;51.002;5.354;2023-04-24T00:46:21;9.70;99.90
41922;DHT22;27609;51.002;5.354;2023-04-24T00:48:47;9.70;99.90
41922;DHT22;27609;51.002;5.354;2023-04-24T00:51:13;9.70;99.90
41922;DHT22;27609;51.002;5.354;2023-04-24T00:53:38;9.70;99.90
41922;DHT22;27609;51.002;5.354;2023-04-24T00:56:05;9.80;99.90
41922;DHT22;27609;51.002;5.354;2023-04-24T00:58:31;9.70;99.90
41922;DHT22;27609;51.002;5.354;2023-04-24T01:00:57;9.80;99.90
41922;DHT22;27609;51.002;5.354;2023-04-24T01:03:28;9.70;99.90
41922;DHT22;27609;51.002;5.354;2023-04-24T01:05:55;9.70;99.90
41922;DHT22;27609;51.002;5.354;2023-04-24T01:08:22;9.70;99.90
41922;DHT22;27609;51.002;5.354;2023-04-24T01:10:52;9.70;99.90
41922;DHT22;27609;51.002;5.354;2023-04-24T01:13:21;9.70;99.90
41922;DHT22;27609;51.002;5.354;2023-04-24T01:15:47;9.70;99.90
41922;DHT22;27609;51.002;5.354;2023-04-24T01:18:14;9.60;99.90
41922;DHT22;27609;51.002;5.354;2023-04-24T01:20:41;9.70;99.90
41922;DHT22;27609;51.002;5.354;2023-04-24T01:23:08;9.70;99.90
41922;DHT22;27609;51.002;5.354;2023-04-24T01:25:34;9.70;99.90
41922;DHT22;27609;51.002;5.354;2023-04-24T01:28:00;9.70;99.90
41922;DHT22;27609;51.002;5.354;2023-04-24T01:30:27;9.80;99.90
41922;DHT22;27609;51.002;5.354;2023-04-24T01:32:53;9.80;99.90
41922;DHT22;27609;51.002;5.354;2023-04-24T01:35:20;9.70;99.90
41922;DHT22;27609;51.002;5.354;2023-04-24T01:37:46;9.80;99.90
41922;DHT22;27609;51.002;5.354;2023-04-24T01:40:12;9.80;99.90
41922;DHT22;27609;51.002;5.354;2023-04-24T01:42:38;9.80;99.90
41922;DHT22;27609;51.002;5.354;2023-04-24T01:45:04;9.80;99.90
41922;DHT22;27609;51.002;5.354;2023-04-24T01:47:31;9.80;99.90
41922;DHT22;27609;51.002;5.354;2023-04-24T01:49:57;9.70;99.90
41922;DHT22;27609;51.002;5.354;2023-04-24T01:52:23;9.70;99.90
41922;DHT22;27609;51.002;5.354;2023-04-24T01:54:49;9.70;99.90
41922;DHT22;27609;51.002;5.354;2023-04-24T01:57:16;9.70;99.90
41922;DHT22;27609;51.002;5.354;2023-04-24T01:59:41;9.60;99.90
41922;DHT22;27609;51.002;5.354;2023-04-24T02:02:07;9.60;99.90
41922;DHT22;27609;51.002;5.354;2023-04-24T02:04:33;9.60;99.90
41922;DHT22;27609;51.002;5.354;2023-04-24T02:06:59;9.50;99.90
41922;DHT22;27609;51.002;5.354;2023-04-24T02:09:24;9.40;99.90
41922;DHT22;27609;51.002;5.354;2023-04-24T02:11:50;9.30;99.90
41922;DHT22;27609;51.002;5.354;2023-04-24T02:14:16;9.30;99.90
41922;DHT22;27609;51.002;5.354;2023-04-24T02:16:42;9.20;99.90
41922;DHT22;27609;51.002;5.354;2023-04-24T02:19:07;9.20;99.90
41922;DHT22;27609;51.002;5.354;2023-04-24T02:21:33;9.10;99.90
41922;DHT22;27609;51.002;5.354;2023-04-24T02:24:00;9.10;99.90
41922;DHT22;27609;51.002;5.354;2023-04-24T02:26:25;9.10;99.90
41922;DHT22;27609;51.002;5.354;2023-04-24T02:28:51;9.20;99.90
41922;DHT22;27609;51.002;5.354;2023-04-24T02:31:17;9.20;99.90
41922;DHT22;27609;51.002;5.354;2023-04-24T02:33:42;9.20;99.90
41922;DHT22;27609;51.002;5.354;2023-04-24T02:36:08;9.10;99.90
41922;DHT22;27609;51.002;5.354;2023-04-24T02:38:34;9.10;99.90
41922;DHT22;27609;51.002;5.354;2023-04-24T02:41:00;9.10;99.90
41922;DHT22;27609;51.002;5.354;2023-04-24T02:43:27;9.20;99.90
41922;DHT22;27609;51.002;5.354;2023-04-24T02:45:53;9.10;99.90
41922;DHT22;27609;51.002;5.354;2023-04-24T02:48:19;9.00;99.90
41922;DHT22;27609;51.002;5.354;2023-04-24T02:50:46;9.00;99.90
41922;DHT22;27609;51.002;5.354;2023-04-24T02:53:12;8.90;99.90
41922;DHT22;27609;51.002;5.354;2023-04-24T02:55:37;8.90;99.90
41922;DHT22;27609;51.002;5.354;2023-04-24T02:58:03;8.90;99.90
41922;DHT22;27609;51.002;5.354;2023-04-24T03:00:29;8.90;99.90
41922;DHT22;27609;51.002;5.354;2023-04-24T03:02:55;8.80;99.90
41922;DHT22;27609;51.002;5.354;2023-04-24T03:05:21;8.80;99.90
41922;DHT22;27609;51.002;5.354;2023-04-24T03:07:46;8.80;99.90
41922;DHT22;27609;51.002;5.354;2023-04-24T03:10:12;8.80;99.90
41922;DHT22;27609;51.002;5.354;2023-04-24T03:12:38;8.80;99.90
41922;DHT22;27609;51.002;5.354;2023-04-24T03:15:04;8.80;99.90
41922;DHT22;27609;51.002;5.354;2023-04-24T03:17:30;8.90;99.90
41922;DHT22;27609;51.002;5.354;2023-04-24T03:19:56;8.80;99.90
41922;DHT22;27609;51.002;5.354;2023-04-24T03:22:21;7.90;99.90
41922;DHT22;27609;51.002;5.354;2023-04-24T03:24:47;8.90;99.90
41922;DHT22;27609;51.002;5.354;2023-04-24T03:27:13;8.80;99.90
41922;DHT22;27609;51.002;5.354;2023-04-24T03:29:39;8.80;99.90
41922;DHT22;27609;51.002;5.354;2023-04-24T03:32:05;8.70;99.90
41922;DHT22;27609;51.002;5.354;2023-04-24T03:34:30;8.60;99.90
41922;DHT22;27609;51.002;5.354;2023-04-24T03:36:56;8.60;99.90
41922;DHT22;27609;51.002;5.354;2023-04-24T03:39:22;8.50;99.90
41922;DHT22;27609;51.002;5.354;2023-04-24T03:41:47;8.50;99.90
41922;DHT22;27609;51.002;5.354;2023-04-24T03:44:13;8.50;99.90
41922;DHT22;27609;51.002;5.354;2023-04-24T03:46:39;8.60;99.90
41922;DHT22;27609;51.002;5.354;2023-04-24T03:49:05;8.60;99.90
41922;DHT22;27609;51.002;5.354;2023-04-24T03:51:31;8.50;99.90
41922;DHT22;27609;51.002;5.354;2023-04-24T03:53:57;8.50;99.90
41922;DHT22;27609;51.002;5.354;2023-04-24T03:56:23;8.60;99.90
41922;DHT22;27609;51.002;5.354;2023-04-24T03:58:48;8.60;99.90
41922;DHT22;27609;51.002;5.354;2023-04-24T04:01:14;8.60;99.90
41922;DHT22;27609;51.002;5.354;2023-04-24T04:03:41;8.70;99.90
41922;DHT22;27609;51.002;5.354;2023-04-24T04:06:07;8.60;99.90
41922;DHT22;27609;51.002;5.354;2023-04-24T04:08:33;8.50;99.90
41922;DHT22;27609;51.002;5.354;2023-04-24T04:10:58;8.50;99.90
41922;DHT22;27609;51.002;5.354;2023-04-24T04:13:24;8.60;99.90
41922;DHT22;27609;51.002;5.354;2023-04-24T04:15:50;8.50;99.90
41922;DHT22;27609;51.002;5.354;2023-04-24T04:18:16;8.60;99.90
41922;DHT22;27609;51.002;5.354;2023-04-24T04:20:41;8.50;99.90
41922;DHT22;27609;51.002;5.354;2023-04-24T04:23:07;8.50;99.90
41922;DHT22;27609;51.002;5.354;2023-04-24T04:25:33;8.50;99.90
41922;DHT22;27609;51.002;5.354;2023-04-24T04:27:59;8.40;99.90
41922;DHT22;27609;51.002;5.354;2023-04-24T04:30:25;8.40;99.90
41922;DHT22;27609;51.002;5.354;2023-04-24T04:32:51;8.40;99.90
41922;DHT22;27609;51.002;5.354;2023-04-24T04:35:17;8.40;99.90
41922;DHT22;27609;51.002;5.354;2023-04-24T04:37:43;8.30;99.90
41922;DHT22;27609;51.002;5.354;2023-04-24T04:40:09;8.30;99.90
41922;DHT22;27609;51.002;5.354;2023-04-24T04:42:37;8.30;99.90
41922;DHT22;27609;51.002;5.354;2023-04-24T04:45:07;8.40;99.90
41922;DHT22;27609;51.002;5.354;2023-04-24T04:47:37;8.30;99.90
41922;DHT22;27609;51.002;5.354;2023-04-24T04:50:03;8.30;99.90
41922;DHT22;27609;51.002;5.354;2023-04-24T04:52:29;8.30;99.90
41922;DHT22;27609;51.002;5.354;2023-04-24T04:54:55;8.30;99.90
41922;DHT22;27609;51.002;5.354;2023-04-24T04:57:21;8.30;99.90
41922;DHT22;27609;51.002;5.354;2023-04-24T04:59:46;8.30;99.90
41922;DHT22;27609;51.002;5.354;2023-04-24T05:02:12;8.30;99.90
41922;DHT22;27609;51.002;5.354;2023-04-24T05:04:38;8.30;99.90
41922;DHT22;27609;51.002;5.354;2023-04-24T05:07:04;8.30;99.90
41922;DHT22;27609;51.002;5.354;2023-04-24T05:09:29;8.40;99.90
41922;DHT22;27609;51.002;5.354;2023-04-24T05:11:56;8.40;99.90
41922;DHT22;27609;51.002;5.354;2023-04-24T05:14:21;8.30;99.90
41922;DHT22;27609;51.002;5.354;2023-04-24T05:16:47;8.40;99.90
41922;DHT22;27609;51.002;5.354;2023-04-24T05:19:13;8.40;99.90
41922;DHT22;27609;51.002;5.354;2023-04-24T05:21:40;8.50;99.90
41922;DHT22;27609;51.002;5.354;2023-04-24T05:24:06;8.40;99.90
41922;DHT22;27609;51.002;5.354;2023-04-24T05:26:32;8.50;99.90
41922;DHT22;27609;51.002;5.354;2023-04-24T05:28:58;8.50;99.90
41922;DHT22;27609;51.002;5.354;2023-04-24T05:31:24;8.40;99.90
41922;DHT22;27609;51.002;5.354;2023-04-24T05:33:50;8.50;99.90
41922;DHT22;27609;51.002;5.354;2023-04-24T05:36:16;8.40;99.90
41922;DHT22;27609;51.002;5.354;2023-04-24T05:38:42;8.50;99.90
41922;DHT22;27609;51.002;5.354;2023-04-24T05:41:07;8.50;99.90
41922;DHT22;27609;51.002;5.354;2023-04-24T05:43:33;8.50;99.90
41922;DHT22;27609;51.002;5.354;2023-04-24T05:45:59;8.30;99.90
41922;DHT22;27609;51.002;5.354;2023-04-24T05:48:25;8.30;99.90
41922;DHT22;27609;51.002;5.354;2023-04-24T05:50:51;8.40;99.90
41922;DHT22;27609;51.002;5.354;2023-04-24T05:53:18;8.30;99.90
41922;DHT22;27609;51.002;5.354;2023-04-24T05:55:44;8.20;99.90
41922;DHT22;27609;51.002;5.354;2023-04-24T05:58:10;8.20;99.90
41922;DHT22;27609;51.002;5.354;2023-04-24T06:00:36;8.30;99.90
41922;DHT22;27609;51.002;5.354;2023-04-24T06:03:03;8.30;99.90
41922;DHT22;27609;51.002;5.354;2023-04-24T06:05:29;8.20;99.90
41922;DHT22;27609;51.002;5.354;2023-04-24T06:07:55;8.30;99.90
41922;DHT22;27609;51.002;5.354;2023-04-24T06:10:22;8.20;99.90
41922;DHT22;27609;51.002;5.354;2023-04-24T06:12:47;8.20;99.90
41922;DHT22;27609;51.002;5.354;2023-04-24T06:15:13;8.00;99.90
41922;DHT22;27609;51.002;5.354;2023-04-24T06:17:39;8.10;99.90
41922;DHT22;27609;51.002;5.354;2023-04-24T06:20:05;8.00;99.90
41922;DHT22;27609;51.002;5.354;2023-04-24T06:22:32;8.00;99.90
41922;DHT22;27609;51.002;5.354;2023-04-24T06:24:57;8.10;99.90
41922;DHT22;27609;51.002;5.354;2023-04-24T06:27:23;8.10;99.90
41922;DHT22;27609;51.002;5.354;2023-04-24T06:29:49;8.00;99.90
41922;DHT22;27609;51.002;5.354;2023-04-24T06:32:22;8.00;99.90
41922;DHT22;27609;51.002;5.354;2023-04-24T06:34:49;8.00;99.90
41922;DHT22;27609;51.002;5.354;2023-04-24T06:37:16;8.10;99.90
41922;DHT22;27609;51.002;5.354;2023-04-24T06:39:42;8.10;99.90
41922;DHT22;27609;51.002;5.354;2023-04-24T06:42:07;8.10;99.90
41922;DHT22;27609;51.002;5.354;2023-04-24T06:44:35;8.10;99.90
41922;DHT22;27609;51.002;5.354;2023-04-24T06:47:06;8.10;99.90
41922;DHT22;27609;51.002;5.354;2023-04-24T06:49:33;8.10;99.90
41922;DHT22;27609;51.002;5.354;2023-04-24T06:51:58;8.10;99.90
41922;DHT22;27609;51.002;5.354;2023-04-24T06:54:24;8.10;99.90
41922;DHT22;27609;51.002;5.354;2023-04-24T06:56:50;8.20;99.90
41922;DHT22;27609;51.002;5.354;2023-04-24T06:59:16;8.20;99.90
41922;DHT22;27609;51.002;5.354;2023-04-24T07:01:42;8.20;99.90
41922;DHT22;27609;51.002;5.354;2023-04-24T07:04:08;8.10;99.90
41922;DHT22;27609;51.002;5.354;2023-04-24T07:06:35;8.20;99.90
41922;DHT22;27609;51.002;5.354;2023-04-24T07:09:01;8.10;99.90
41922;DHT22;27609;51.002;5.354;2023-04-24T07:11:27;8.10;99.90
41922;DHT22;27609;51.002;5.354;2023-04-24T07:13:55;8.10;99.90
41922;DHT22;27609;51.002;5.354;2023-04-24T07:16:21;8.30;99.90
41922;DHT22;27609;51.002;5.354;2023-04-24T07:18:46;8.40;99.90
41922;DHT22;27609;51.002;5.354;2023-04-24T07:21:12;8.30;99.90
41922;DHT22;27609;51.002;5.354;2023-04-24T07:23:38;8.30;99.90
41922;DHT22;27609;51.002;5.354;2023-04-24T07:26:04;8.40;99.90
41922;DHT22;27609;51.002;5.354;2023-04-24T07:28:30;8.40;99.90
41922;DHT22;27609;51.002;5.354;2023-04-24T07:30:57;8.50;99.90
41922;DHT22;27609;51.002;5.354;2023-04-24T07:33:24;8.50;99.90
41922;DHT22;27609;51.002;5.354;2023-04-24T07:35:50;8.50;99.90
41922;DHT22;27609;51.002;5.354;2023-04-24T07:38:15;8.60;99.90
41922;DHT22;27609;51.002;5.354;2023-04-24T07:40:41;8.80;99.90
41922;DHT22;27609;51.002;5.354;2023-04-24T07:43:07;8.90;99.90
41922;DHT22;27609;51.002;5.354;2023-04-24T07:45:33;9.20;99.90
41922;DHT22;27609;51.002;5.354;2023-04-24T07:48:02;9.10;99.90
41922;DHT22;27609;51.002;5.354;2023-04-24T07:50:28;9.10;99.90
41922;DHT22;27609;51.002;5.354;2023-04-24T07:52:54;9.10;99.90
41922;DHT22;27609;51.002;5.354;2023-04-24T07:55:20;9.00;99.90
41922;DHT22;27609;51.002;5.354;2023-04-24T07:57:46;8.90;99.90
41922;DHT22;27609;51.002;5.354;2023-04-24T08:00:12;8.70;99.90
41922;DHT22;27609;51.002;5.354;2023-04-24T08:02:38;8.70;99.90
41922;DHT22;27609;51.002;5.354;2023-04-24T08:05:04;8.80;99.90
41922;DHT22;27609;51.002;5.354;2023-04-24T08:07:30;8.90;99.90
41922;DHT22;27609;51.002;5.354;2023-04-24T08:09:55;9.00;99.90
41922;DHT22;27609;51.002;5.354;2023-04-24T08:12:21;9.00;99.90
41922;DHT22;27609;51.002;5.354;2023-04-24T08:14:47;8.80;99.90
41922;DHT22;27609;51.002;5.354;2023-04-24T08:17:13;8.70;99.90
41922;DHT22;27609;51.002;5.354;2023-04-24T08:19:40;8.60;99.90
41922;DHT22;27609;51.002;5.354;2023-04-24T08:22:12;8.70;99.90
41922;DHT22;27609;51.002;5.354;2023-04-24T08:24:38;8.70;99.90
41922;DHT22;27609;51.002;5.354;2023-04-24T08:27:04;8.80;99.90
41922;DHT22;27609;51.002;5.354;2023-04-24T08:29:30;8.90;99.90
41922;DHT22;27609;51.002;5.354;2023-04-24T08:31:56;9.10;99.90
41922;DHT22;27609;51.002;5.354;2023-04-24T08:34:22;9.30;99.90
41922;DHT22;27609;51.002;5.354;2023-04-24T08:36:48;9.40;99.90
41922;DHT22;27609;51.002;5.354;2023-04-24T08:39:14;9.50;99.90
41922;DHT22;27609;51.002;5.354;2023-04-24T08:41:42;9.70;99.90
41922;DHT22;27609;51.002;5.354;2023-04-24T08:44:12;9.60;99.90
41922;DHT22;27609;51.002;5.354;2023-04-24T08:46:39;9.60;99.90
41922;DHT22;27609;51.002;5.354;2023-04-24T08:49:06;9.90;99.90
41922;DHT22;27609;51.002;5.354;2023-04-24T08:51:31;10.10;99.90
41922;DHT22;27609;51.002;5.354;2023-04-24T08:53:58;10.40;99.90
41922;DHT22;27609;51.002;5.354;2023-04-24T08:56:24;10.50;99.90
41922;DHT22;27609;51.002;5.354;2023-04-24T08:58:51;10.60;99.90
41922;DHT22;27609;51.002;5.354;2023-04-24T09:01:19;10.80;99.90
41922;DHT22;27609;51.002;5.354;2023-04-24T09:03:48;11.00;99.90
41922;DHT22;27609;51.002;5.354;2023-04-24T09:06:16;10.80;99.90
41922;DHT22;27609;51.002;5.354;2023-04-24T09:08:43;10.60;99.90
41922;DHT22;27609;51.002;5.354;2023-04-24T09:11:11;10.60;99.90
41922;DHT22;27609;51.002;5.354;2023-04-24T09:13:37;10.90;99.90
41922;DHT22;27609;51.002;5.354;2023-04-24T09:16:03;11.00;99.90
41922;DHT22;27609;51.002;5.354;2023-04-24T09:18:29;11.00;99.90
41922;DHT22;27609;51.002;5.354;2023-04-24T09:21:02;11.00;99.90
41922;DHT22;27609;51.002;5.354;2023-04-24T09:23:29;10.60;99.90
41922;DHT22;27609;51.002;5.354;2023-04-24T09:25:56;10.60;99.90
41922;DHT22;27609;51.002;5.354;2023-04-24T09:28:33;10.40;99.90
41922;DHT22;27609;51.002;5.354;2023-04-24T09:31:08;10.30;99.90
41922;DHT22;27609;51.002;5.354;2023-04-24T09:33:35;10.00;99.90
41922;DHT22;27609;51.002;5.354;2023-04-24T09:36:01;10.00;99.90
41922;DHT22;27609;51.002;5.354;2023-04-24T09:38:38;10.30;99.90
41922;DHT22;27609;51.002;5.354;2023-04-24T09:41:08;10.50;99.90
41922;DHT22;27609;51.002;5.354;2023-04-24T09:43:38;10.40;99.90
41922;DHT22;27609;51.002;5.354;2023-04-24T09:46:07;11.30;99.90
41922;DHT22;27609;51.002;5.354;2023-04-24T09:48:35;11.20;99.90
41922;DHT22;27609;51.002;5.354;2023-04-24T09:51:03;11.90;99.90
41922;DHT22;27609;51.002;5.354;2023-04-24T09:53:30;12.60;99.90
41922;DHT22;27609;51.002;5.354;2023-04-24T09:56:01;13.00;99.90
41922;DHT22;27609;51.002;5.354;2023-04-24T09:58:28;13.70;99.90
41922;DHT22;27609;51.002;5.354;2023-04-24T10:00:55;13.70;99.90
41922;DHT22;27609;51.002;5.354;2023-04-24T10:03:24;13.60;99.90
41922;DHT22;27609;51.002;5.354;2023-04-24T10:05:51;13.60;99.90
41922;DHT22;27609;51.002;5.354;2023-04-24T10:08:17;14.10;99.90
41922;DHT22;27609;51.002;5.354;2023-04-24T10:10:44;14.40;99.90
41922;DHT22;27609;51.002;5.354;2023-04-24T10:13:12;14.10;99.90
41922;DHT22;27609;51.002;5.354;2023-04-24T10:15:39;14.20;99.90
41922;DHT22;27609;51.002;5.354;2023-04-24T10:18:06;14.10;99.90
41922;DHT22;27609;51.002;5.354;2023-04-24T10:20:33;14.10;99.90
41922;DHT22;27609;51.002;5.354;2023-04-24T10:23:00;13.60;99.90
41922;DHT22;27609;51.002;5.354;2023-04-24T10:25:28;13.00;99.90
41922;DHT22;27609;51.002;5.354;2023-04-24T10:27:55;12.40;99.90
41922;DHT22;27609;51.002;5.354;2023-04-24T10:30:23;11.80;99.90
41922;DHT22;27609;51.002;5.354;2023-04-24T10:32:49;11.40;99.90
41922;DHT22;27609;51.002;5.354;2023-04-24T10:35:16;11.10;99.90
41922;DHT22;27609;51.002;5.354;2023-04-24T10:37:49;10.90;99.90
41922;DHT22;27609;51.002;5.354;2023-04-24T10:40:31;11.00;99.90
41922;DHT22;27609;51.002;5.354;2023-04-24T10:42:58;11.50;99.90
41922;DHT22;27609;51.002;5.354;2023-04-24T10:45:25;12.30;99.90
41922;DHT22;27609;51.002;5.354;2023-04-24T10:48:11;13.00;99.90
41922;DHT22;27609;51.002;5.354;2023-04-24T10:50:46;12.80;99.90
41922;DHT22;27609;51.002;5.354;2023-04-24T10:53:20;12.60;99.90
41922;DHT22;27609;51.002;5.354;2023-04-24T10:55:47;12.30;99.90
41922;DHT22;27609;51.002;5.354;2023-04-24T10:58:13;12.00;99.90
41922;DHT22;27609;51.002;5.354;2023-04-24T11:00:40;12.00;99.90
41922;DHT22;27609;51.002;5.354;2023-04-24T11:03:22;12.00;99.90
41922;DHT22;27609;51.002;5.354;2023-04-24T11:06:11;12.00;99.90
41922;DHT22;27609;51.002;5.354;2023-04-24T11:08:43;11.90;99.90
41922;DHT22;27609;51.002;5.354;2023-04-24T11:11:17;12.10;99.90
41922;DHT22;27609;51.002;5.354;2023-04-24T11:16:33;12.60;99.90
41922;DHT22;27609;51.002;5.354;2023-04-24T11:19:06;12.30;99.90
41922;DHT22;27609;51.002;5.354;2023-04-24T11:25:07;12.10;99.90
41922;DHT22;27609;51.002;5.354;2023-04-24T11:27:16;12.40;99.90
41922;DHT22;27609;51.002;5.354;2023-04-24T11:29:58;12.30;99.90
41922;DHT22;27609;51.002;5.354;2023-04-24T11:32:33;12.60;99.90
41922;DHT22;27609;51.002;5.354;2023-04-24T11:37:38;14.00;99.90
41922;DHT22;27609;51.002;5.354;2023-04-24T11:40:09;14.40;99.90
41922;DHT22;27609;51.002;5.354;2023-04-24T11:45:02;14.80;99.90
41922;DHT22;27609;51.002;5.354;2023-04-24T11:47:32;14.10;99.90
41922;DHT22;27609;51.002;5.354;2023-04-24T11:49:59;14.10;99.90
41922;DHT22;27609;51.002;5.354;2023-04-24T11:52:26;13.40;99.90
41922;DHT22;27609;51.002;5.354;2023-04-24T11:54:52;12.80;99.90
41922;DHT22;27609;51.002;5.354;2023-04-24T11:57:22;13.00;99.90
41922;DHT22;27609;51.002;5.354;2023-04-24T11:59:49;13.60;99.90
41922;DHT22;27609;51.002;5.354;2023-04-24T12:02:26;14.10;99.90
41922;DHT22;27609;51.002;5.354;2023-04-24T12:04:53;14.50;99.90
41922;DHT22;27609;51.002;5.354;2023-04-24T12:07:19;15.00;99.90
41922;DHT22;27609;51.002;5.354;2023-04-24T12:09:56;15.00;99.90
41922;DHT22;27609;51.002;5.354;2023-04-24T12:12:25;15.50;99.90
41922;DHT22;27609;51.002;5.354;2023-04-24T12:14:56;16.20;99.90
41922;DHT22;27609;51.002;5.354;2023-04-24T12:17:32;15.70;99.90
41922;DHT22;27609;51.002;5.354;2023-04-24T12:20:08;14.80;99.90
41922;DHT22;27609;51.002;5.354;2023-04-24T12:25:18;13.50;99.90
41922;DHT22;27609;51.002;5.354;2023-04-24T12:27:51;13.60;99.90
41922;DHT22;27609;51.002;5.354;2023-04-24T12:30:18;13.50;99.90
41922;DHT22;27609;51.002;5.354;2023-04-24T12:32:48;13.40;99.90
41922;DHT22;27609;51.002;5.354;2023-04-24T12:35:19;14.90;99.90
41922;DHT22;27609;51.002;5.354;2023-04-24T12:37:46;17.10;99.90
41922;DHT22;27609;51.002;5.354;2023-04-24T12:40:13;17.60;99.90
41922;DHT22;27609;51.002;5.354;2023-04-24T12:42:44;16.70;99.90
41922;DHT22;27609;51.002;5.354;2023-04-24T12:45:09;16.10;99.90
41922;DHT22;27609;51.002;5.354;2023-04-24T12:47:38;15.60;99.90
41922;DHT22;27609;51.002;5.354;2023-04-24T12:50:05;15.20;99.90
41922;DHT22;27609;51.002;5.354;2023-04-24T12:52:31;15.10;99.90
41922;DHT22;27609;51.002;5.354;2023-04-24T12:54:58;14.80;99.90
41922;DHT22;27609;51.002;5.354;2023-04-24T12:57:25;14.50;99.90
41922;DHT22;27609;51.002;5.354;2023-04-24T12:59:54;14.40;99.90
41922;DHT22;27609;51.002;5.354;2023-04-24T13:02:20;14.60;99.90
41922;DHT22;27609;51.002;5.354;2023-04-24T13:04:47;14.60;99.90
41922;DHT22;27609;51.002;5.354;2023-04-24T13:07:14;14.70;99.90
41922;DHT22;27609;51.002;5.354;2023-04-24T13:09:41;14.70;99.90
41922;DHT22;27609;51.002;5.354;2023-04-24T13:12:07;15.40;99.90
41922;DHT22;27609;51.002;5.354;2023-04-24T13:14:33;15.80;99.90
41922;DHT22;27609;51.002;5.354;2023-04-24T13:16:59;15.90;99.90
41922;DHT22;27609;51.002;5.354;2023-04-24T13:19:25;16.40;99.90
41922;DHT22;27609;51.002;5.354;2023-04-24T13:21:52;17.60;99.90
41922;DHT22;27609;51.002;5.354;2023-04-24T13:24:18;18.20;99.90
41922;DHT22;27609;51.002;5.354;2023-04-24T13:26:44;18.80;99.90
41922;DHT22;27609;51.002;5.354;2023-04-24T13:29:09;19.00;99.90
41922;DHT22;27609;51.002;5.354;2023-04-24T13:31:35;19.00;99.90
41922;DHT22;27609;51.002;5.354;2023-04-24T13:34:02;18.30;99.90
41922;DHT22;27609;51.002;5.354;2023-04-24T13:36:29;18.20;99.90
41922;DHT22;27609;51.002;5.354;2023-04-24T13:38:55;19.40;99.90
41922;DHT22;27609;51.002;5.354;2023-04-24T13:41:21;19.10;99.90
41922;DHT22;27609;51.002;5.354;2023-04-24T13:43:47;19.30;99.90
41922;DHT22;27609;51.002;5.354;2023-04-24T13:46:12;19.10;99.90
41922;DHT22;27609;51.002;5.354;2023-04-24T13:48:38;19.70;99.90
41922;DHT22;27609;51.002;5.354;2023-04-24T13:51:04;20.50;99.90
41922;DHT22;27609;51.002;5.354;2023-04-24T13:53:29;21.20;99.90
41922;DHT22;27609;51.002;5.354;2023-04-24T13:55:55;19.70;99.90
41922;DHT22;27609;51.002;5.354;2023-04-24T13:58:21;18.80;99.90
41922;DHT22;27609;51.002;5.354;2023-04-24T14:00:47;18.80;99.90
41922;DHT22;27609;51.002;5.354;2023-04-24T14:03:13;18.80;99.90
41922;DHT22;27609;51.002;5.354;2023-04-24T14:05:38;19.00;99.90
41922;DHT22;27609;51.002;5.354;2023-04-24T14:08:04;18.70;99.90
41922;DHT22;27609;51.002;5.354;2023-04-24T14:10:31;19.00;99.90
41922;DHT22;27609;51.002;5.354;2023-04-24T14:12:57;18.70;99.90
41922;DHT22;27609;51.002;5.354;2023-04-24T14:15:23;19.00;99.90
41922;DHT22;27609;51.002;5.354;2023-04-24T14:17:49;18.70;99.90
41922;DHT22;27609;51.002;5.354;2023-04-24T14:20:15;19.20;99.90
41922;DHT22;27609;51.002;5.354;2023-04-24T14:22:41;20.10;99.90
41922;DHT22;27609;51.002;5.354;2023-04-24T14:25:07;20.50;99.90
41922;DHT22;27609;51.002;5.354;2023-04-24T14:27:32;20.10;99.90
41922;DHT22;27609;51.002;5.354;2023-04-24T14:30:00;19.50;99.90
41922;DHT22;27609;51.002;5.354;2023-04-24T14:32:26;19.00;99.90
41922;DHT22;27609;51.002;5.354;2023-04-24T14:34:51;18.50;99.90
41922;DHT22;27609;51.002;5.354;2023-04-24T14:37:17;18.30;99.90
41922;DHT22;27609;51.002;5.354;2023-04-24T14:39:43;18.10;99.90
41922;DHT22;27609;51.002;5.354;2023-04-24T14:42:12;18.10;99.90
41922;DHT22;27609;51.002;5.354;2023-04-24T14:44:37;18.20;99.90
41922;DHT22;27609;51.002;5.354;2023-04-24T14:47:03;17.90;99.90
41922;DHT22;27609;51.002;5.354;2023-04-24T14:49:29;18.40;99.90
41922;DHT22;27609;51.002;5.354;2023-04-24T14:51:55;18.80;99.90
41922;DHT22;27609;51.002;5.354;2023-04-24T14:54:20;18.70;99.90
41922;DHT22;27609;51.002;5.354;2023-04-24T14:56:48;18.30;99.90
41922;DHT22;27609;51.002;5.354;2023-04-24T14:59:14;18.10;99.90
41922;DHT22;27609;51.002;5.354;2023-04-24T15:01:40;17.60;99.90
41922;DHT22;27609;51.002;5.354;2023-04-24T15:04:06;16.90;99.90
41922;DHT22;27609;51.002;5.354;2023-04-24T15:06:32;16.70;99.90
41922;DHT22;27609;51.002;5.354;2023-04-24T15:08:58;16.70;99.90
41922;DHT22;27609;51.002;5.354;2023-04-24T15:11:24;17.00;99.90
41922;DHT22;27609;51.002;5.354;2023-04-24T15:13:49;16.90;99.90
41922;DHT22;27609;51.002;5.354;2023-04-24T15:16:15;17.30;99.90
41922;DHT22;27609;51.002;5.354;2023-04-24T15:18:41;17.80;99.90
41922;DHT22;27609;51.002;5.354;2023-04-24T15:21:07;18.00;99.90
41922;DHT22;27609;51.002;5.354;2023-04-24T15:23:33;17.70;99.90
41922;DHT22;27609;51.002;5.354;2023-04-24T15:25:58;17.40;99.90
41922;DHT22;27609;51.002;5.354;2023-04-24T15:28:25;17.00;99.90
41922;DHT22;27609;51.002;5.354;2023-04-24T15:30:51;16.90;99.90
41922;DHT22;27609;51.002;5.354;2023-04-24T15:33:16;16.80;99.90
41922;DHT22;27609;51.002;5.354;2023-04-24T15:35:42;16.80;99.90
41922;DHT22;27609;51.002;5.354;2023-04-24T15:38:08;16.70;99.90
41922;DHT22;27609;51.002;5.354;2023-04-24T15:40:33;16.40;99.90
41922;DHT22;27609;51.002;5.354;2023-04-24T15:42:59;16.20;99.90
41922;DHT22;27609;51.002;5.354;2023-04-24T15:45:25;16.00;99.90
41922;DHT22;27609;51.002;5.354;2023-04-24T15:47:51;15.70;99.90
41922;DHT22;27609;51.002;5.354;2023-04-24T15:50:17;15.60;99.90